createdAt,value
2023-01-05T00:00:56.188Z,18.38
2023-01-05T00:01:56.188Z,18.29
2023-01-05T00:02:56.164Z,18.31
2023-01-05T00:03:56.541Z,18.29
2023-01-05T00:04:56.209Z,18.39
2023-01-05T00:05:56.231Z,18.34
2023-01-05T00:06:56.259Z,18.32
2023-01-05T00:07:56.317Z,18.28
2023-01-05T00:08:56.440Z,18.38
2023-01-05T00:10:56.874Z,18.32
2023-01-05T00:11:56.800Z,18.36
2023-01-05T00:12:56.682Z,18.29
2023-01-05T00:13:56.584Z,18.36
2023-01-05T00:14:56.641Z,18.31
2023-01-05T00:15:56.568Z,18.38
2023-01-05T00:16:56.833Z,18.39
2023-01-05T00:17:56.669Z,18.36
2023-01-05T00:19:56.830Z,18.32
2023-01-05T00:20:56.751Z,18.44
2023-01-05T00:21:56.831Z,18.32
2023-01-05T00:22:56.712Z,18.35
2023-01-05T00:23:57.039Z,18.32
2023-01-05T00:24:56.866Z,18.34
2023-01-05T00:27:56.907Z,18.44
2023-01-05T00:28:56.933Z,18.46
2023-01-05T00:29:57.337Z,18.47
2023-01-05T00:30:56.982Z,18.34
2023-01-05T00:31:57.058Z,18.41
2023-01-05T00:32:57.131Z,18.38
2023-01-05T00:33:57.119Z,18.39
2023-01-05T00:34:57.049Z,18.39
2023-01-05T00:35:57.425Z,18.41
2023-01-05T00:36:57.156Z,18.38
2023-01-05T00:37:57.227Z,18.36
2023-01-05T00:38:57.316Z,18.41
2023-01-05T00:39:57.292Z,18.41
2023-01-05T00:40:57.212Z,18.41
2023-01-05T00:41:57.668Z,18.41
2023-01-05T00:42:57.699Z,18.42
2023-01-05T00:43:57.636Z,18.39
2023-01-05T00:44:57.530Z,18.42
2023-01-05T00:45:57.630Z,18.38
2023-01-05T00:46:57.680Z,18.42
2023-01-05T00:47:57.420Z,18.42
2023-01-05T00:48:57.736Z,18.49
2023-01-05T00:49:58.270Z,18.39
2023-01-05T00:50:57.720Z,18.46
2023-01-05T00:51:57.863Z,18.38
2023-01-05T00:52:59.262Z,18.38
2023-01-05T00:53:57.881Z,18.47
2023-01-05T00:54:57.834Z,18.36
2023-01-05T00:55:57.950Z,18.36
2023-01-05T00:56:57.848Z,18.42
2023-01-05T00:57:57.887Z,18.42
2023-01-05T00:58:57.860Z,18.42
2023-01-05T00:59:57.854Z,18.39
2023-01-05T01:00:57.979Z,18.49
2023-01-05T01:01:58.121Z,18.44
2023-01-05T01:02:58.244Z,18.38
2023-01-05T01:03:58.077Z,18.38
2023-01-05T01:04:58.092Z,18.38
2023-01-05T01:05:58.019Z,18.39
2023-01-05T01:06:58.072Z,18.39
2023-01-05T01:07:58.179Z,18.32
2023-01-05T01:08:58.209Z,18.32
2023-01-05T01:09:58.647Z,18.42
2023-01-05T01:10:58.966Z,18.46
2023-01-05T01:11:58.154Z,18.44
2023-01-05T01:12:58.322Z,18.36
2023-01-05T01:13:58.302Z,18.31
2023-01-05T01:14:58.383Z,18.46
2023-01-05T01:15:58.296Z,18.28
2023-01-05T01:17:58.597Z,18.41
2023-01-05T01:19:01.723Z,18.26
2023-01-05T01:19:58.358Z,18.36
2023-01-05T01:20:58.395Z,18.32
2023-01-05T01:21:58.486Z,18.29
2023-01-05T01:22:58.452Z,18.29
2023-01-05T01:23:58.524Z,18.32
2023-01-05T01:24:58.883Z,18.29
2023-01-05T01:25:58.486Z,18.34
2023-01-05T01:26:58.511Z,18.29
2023-01-05T01:27:58.658Z,18.29
2023-01-05T01:28:58.578Z,18.29
2023-01-05T01:29:58.634Z,18.36
2023-01-05T01:30:58.810Z,18.36
2023-01-05T01:31:59.060Z,18.32
2023-01-05T01:32:58.679Z,18.32
2023-01-05T01:33:58.775Z,18.34
2023-01-05T01:34:59.031Z,18.32
2023-01-05T01:35:58.769Z,18.34
2023-01-05T01:36:58.789Z,18.32
2023-01-05T01:37:58.911Z,18.31
2023-01-05T01:38:59.148Z,18.32
2023-01-05T01:39:58.937Z,18.36
2023-01-05T01:40:58.906Z,18.34
2023-01-05T01:41:58.997Z,18.35
2023-01-05T01:42:58.966Z,18.35
2023-01-05T01:43:58.983Z,18.34
2023-01-05T01:44:59.026Z,18.28
2023-01-05T01:45:59.407Z,18.26
2023-01-05T01:47:59.097Z,18.25
2023-01-05T01:48:59.145Z,18.26
2023-01-05T01:49:59.175Z,18.29
2023-01-05T01:51:04.755Z,18.28
2023-01-05T01:51:59.207Z,18.20
2023-01-05T01:52:59.542Z,18.25
2023-01-05T01:53:59.274Z,18.25
2023-01-05T01:54:59.293Z,18.25
2023-01-05T01:55:59.356Z,18.26
2023-01-05T01:56:59.467Z,18.28
2023-01-05T01:57:59.381Z,18.25
2023-01-05T01:58:59.408Z,18.23
2023-01-05T01:59:59.763Z,18.26
2023-01-05T02:00:59.498Z,18.26
2023-01-05T02:01:59.637Z,18.23
2023-01-05T02:02:59.617Z,18.23
2023-01-05T02:04:59.648Z,18.25
2023-01-05T02:05:59.672Z,18.25
2023-01-05T02:06:59.879Z,18.26
2023-01-05T02:07:59.699Z,18.25
2023-01-05T02:08:59.692Z,18.29
2023-01-05T02:09:59.709Z,18.28
2023-01-05T02:10:59.748Z,18.25
2023-01-05T02:11:59.797Z,18.23
2023-01-05T02:12:59.801Z,18.28
2023-01-05T02:14:00.086Z,18.28
2023-01-05T02:14:59.855Z,18.20
2023-01-05T02:15:59.879Z,18.25
2023-01-05T02:16:59.983Z,18.21
2023-01-05T02:17:59.946Z,18.25
2023-01-05T02:18:59.969Z,18.26
2023-01-05T02:19:59.989Z,18.20
2023-01-05T02:21:00.278Z,18.29
2023-01-05T02:22:00.098Z,18.23
2023-01-05T02:23:00.103Z,18.28
2023-01-05T02:25:00.234Z,18.19
2023-01-05T02:26:00.172Z,18.29
2023-01-05T02:28:00.259Z,18.25
2023-01-05T02:29:00.550Z,18.23
2023-01-05T02:30:00.285Z,18.17
2023-01-05T02:31:00.421Z,18.19
2023-01-05T02:32:00.424Z,18.17
2023-01-05T02:33:00.460Z,18.26
2023-01-05T02:34:00.453Z,18.28
2023-01-05T02:36:00.698Z,18.19
2023-01-05T02:37:00.480Z,18.28
2023-01-05T02:39:00.634Z,18.21
2023-01-05T02:40:00.665Z,18.23
2023-01-05T02:41:00.589Z,18.17
2023-01-05T02:42:00.610Z,18.19
2023-01-05T02:43:00.958Z,18.25
2023-01-05T02:44:00.677Z,18.19
2023-01-05T02:47:00.763Z,18.19
2023-01-05T02:48:00.796Z,18.16
2023-01-05T02:49:00.813Z,18.11
2023-01-05T02:50:01.155Z,18.07
2023-01-05T02:51:00.863Z,18.19
2023-01-05T02:52:01.013Z,18.11
2023-01-05T02:53:00.919Z,18.13
2023-01-05T02:54:00.945Z,18.09
2023-01-05T02:55:01.294Z,18.14
2023-01-05T02:56:01.008Z,18.05
2023-01-05T02:57:01.333Z,18.14
2023-01-05T02:58:01.058Z,18.11
2023-01-05T02:59:01.101Z,18.11
2023-01-05T03:01:01.345Z,18.09
2023-01-05T03:02:01.301Z,18.07
2023-01-05T03:04:01.235Z,18.10
2023-01-05T03:05:01.515Z,18.10
2023-01-05T03:07:01.337Z,18.10
2023-01-05T03:08:01.334Z,18.09
2023-01-05T03:09:01.363Z,18.04
2023-01-05T03:10:01.400Z,18.10
2023-01-05T03:11:01.448Z,18.11
2023-01-05T03:12:01.766Z,18.09
2023-01-05T03:13:01.526Z,18.17
2023-01-05T03:14:01.507Z,18.14
2023-01-05T03:15:01.548Z,18.09
2023-01-05T03:16:01.623Z,18.07
2023-01-05T03:17:01.597Z,18.10
2023-01-05T03:18:01.625Z,18.09
2023-01-05T03:19:01.951Z,18.09
2023-01-05T03:20:01.679Z,18.13
2023-01-05T03:21:01.704Z,18.09
2023-01-05T03:22:01.735Z,18.11
2023-01-05T03:23:01.772Z,18.07
2023-01-05T03:24:01.789Z,18.13
2023-01-05T03:25:01.819Z,18.05
2023-01-05T03:26:02.145Z,18.13
2023-01-05T03:27:01.885Z,18.09
2023-01-05T03:28:01.899Z,18.14
2023-01-05T03:29:01.949Z,18.10
2023-01-05T03:30:01.948Z,18.05
2023-01-05T03:31:02.044Z,18.13
2023-01-05T03:32:02.029Z,18.04
2023-01-05T03:33:02.352Z,18.07
2023-01-05T03:34:02.091Z,18.16
2023-01-05T03:35:02.093Z,18.11
2023-01-05T03:36:02.162Z,18.02
2023-01-05T03:37:02.147Z,18.05
2023-01-05T03:38:02.379Z,18.09
2023-01-05T03:39:02.508Z,18.05
2023-01-05T03:40:02.232Z,18.10
2023-01-05T03:41:02.367Z,18.09
2023-01-05T03:42:02.287Z,18.04
2023-01-05T03:43:02.400Z,18.10
2023-01-05T03:44:02.340Z,18.07
2023-01-05T03:45:02.668Z,18.02
2023-01-05T03:46:02.454Z,18.07
2023-01-05T03:47:02.450Z,18.10
2023-01-05T03:48:02.461Z,18.10
2023-01-05T03:49:02.483Z,18.05
2023-01-05T03:50:02.509Z,18.01
2023-01-05T03:51:02.839Z,17.99
2023-01-05T03:52:02.565Z,18.05
2023-01-05T03:53:02.609Z,18.07
2023-01-05T03:54:02.620Z,18.07
2023-01-05T03:55:02.749Z,18.07
2023-01-05T03:56:02.685Z,18.04
2023-01-05T03:57:02.704Z,18.07
2023-01-05T03:58:03.011Z,17.99
2023-01-05T03:59:02.780Z,17.96
2023-01-05T04:00:02.794Z,18.09
2023-01-05T04:01:02.926Z,18.13
2023-01-05T04:02:02.963Z,18.07
2023-01-05T04:03:03.008Z,17.98
2023-01-05T04:04:03.059Z,18.10
2023-01-05T04:05:03.231Z,18.09
2023-01-05T04:06:02.972Z,17.95
2023-01-05T04:07:02.986Z,18.04
2023-01-05T04:08:03.016Z,18.09
2023-01-05T04:10:03.079Z,18.05
2023-01-05T04:11:03.101Z,18.10
2023-01-05T04:12:03.377Z,18.05
2023-01-05T04:13:03.153Z,17.98
2023-01-05T04:14:03.181Z,17.99
2023-01-05T04:15:03.231Z,17.98
2023-01-05T04:17:03.268Z,18.01
2023-01-05T04:18:03.301Z,18.04
2023-01-05T04:19:03.629Z,18.04
2023-01-05T04:20:03.350Z,17.98
2023-01-05T04:21:03.389Z,17.98
2023-01-05T04:22:03.453Z,17.98
2023-01-05T04:23:03.442Z,18.02
2023-01-05T04:24:03.482Z,18.05
2023-01-05T04:25:03.495Z,17.99
2023-01-05T04:26:03.828Z,18.02
2023-01-05T04:27:03.539Z,18.01
2023-01-05T04:28:03.877Z,18.09
2023-01-05T04:29:03.598Z,17.96
2023-01-05T04:30:03.641Z,18.01
2023-01-05T04:31:03.766Z,17.98
2023-01-05T04:32:03.694Z,17.98
2023-01-05T04:33:03.963Z,18.02
2023-01-05T04:35:10.607Z,17.99
2023-01-05T04:36:03.794Z,18.01
2023-01-05T04:37:03.824Z,18.02
2023-01-05T04:38:03.849Z,17.96
2023-01-05T04:39:03.881Z,18.01
2023-01-05T04:41:04.250Z,17.98
2023-01-05T04:42:03.967Z,17.95
2023-01-05T04:43:03.993Z,17.96
2023-01-05T04:44:04.019Z,18.01
2023-01-05T04:45:04.052Z,18.02
2023-01-05T04:46:04.143Z,18.01
2023-01-05T04:47:04.122Z,18.01
2023-01-05T04:48:04.403Z,18.01
2023-01-05T04:49:04.167Z,17.95
2023-01-05T04:50:04.190Z,17.94
2023-01-05T04:51:04.246Z,18.02
2023-01-05T04:52:04.247Z,17.99
2023-01-05T04:53:04.274Z,18.01
2023-01-05T04:54:04.300Z,17.98
2023-01-05T04:55:04.634Z,17.95
2023-01-05T04:56:04.356Z,17.96
2023-01-05T04:57:04.384Z,17.95
2023-01-05T04:58:06.890Z,17.94
2023-01-05T04:59:04.439Z,17.98
2023-01-05T05:00:04.564Z,18.01
2023-01-05T05:01:04.574Z,17.98
2023-01-05T05:03:05.051Z,17.99
2023-01-05T05:04:04.581Z,17.94
2023-01-05T05:05:04.606Z,18.01
2023-01-05T05:06:04.800Z,17.99
2023-01-05T05:07:04.688Z,18.04
2023-01-05T05:08:04.691Z,17.96
2023-01-05T05:11:05.019Z,17.99
2023-01-05T05:12:04.800Z,17.96
2023-01-05T05:13:04.836Z,18.04
2023-01-05T05:14:04.860Z,18.04
2023-01-05T05:15:04.885Z,18.07
2023-01-05T05:16:05.063Z,17.96
2023-01-05T05:17:04.963Z,18.02
2023-01-05T05:18:09.126Z,17.99
2023-01-05T05:19:05.034Z,17.95
2023-01-05T05:20:05.023Z,18.04
2023-01-05T05:21:05.050Z,18.04
2023-01-05T05:22:05.097Z,18.04
2023-01-05T05:23:05.104Z,17.96
2023-01-05T05:24:05.157Z,18.02
2023-01-05T05:25:05.467Z,18.04
2023-01-05T05:26:05.191Z,17.99
2023-01-05T05:27:05.212Z,17.96
2023-01-05T05:28:05.246Z,17.98
2023-01-05T05:29:05.335Z,17.96
2023-01-05T05:30:05.382Z,17.99
2023-01-05T05:31:05.451Z,18.01
2023-01-05T05:32:05.666Z,17.98
2023-01-05T05:33:05.409Z,17.95
2023-01-05T05:34:05.451Z,17.95
2023-01-05T05:35:05.917Z,17.99
2023-01-05T05:36:05.465Z,17.95
2023-01-05T05:38:05.533Z,17.99
2023-01-05T05:39:05.874Z,17.91
2023-01-05T05:40:05.694Z,18.01
2023-01-05T05:41:05.605Z,17.96
2023-01-05T05:42:05.641Z,18.04
2023-01-05T05:44:05.695Z,17.99
2023-01-05T05:45:05.755Z,17.94
2023-01-05T05:46:06.164Z,17.95
2023-01-05T05:47:05.877Z,17.91
2023-01-05T05:48:05.803Z,17.94
2023-01-05T05:49:05.845Z,17.95
2023-01-05T05:50:05.877Z,17.91
2023-01-05T05:51:05.977Z,17.99
2023-01-05T05:52:05.922Z,17.96
2023-01-05T05:53:06.262Z,17.99
2023-01-05T05:55:06.050Z,17.98
2023-01-05T05:56:06.055Z,18.01
2023-01-05T05:57:06.067Z,18.01
2023-01-05T05:58:06.091Z,17.98
2023-01-05T06:00:06.141Z,17.95
2023-01-05T06:01:06.481Z,17.94
2023-01-05T06:02:06.510Z,17.95
2023-01-05T06:03:06.582Z,17.96
2023-01-05T06:04:06.402Z,17.98
2023-01-05T06:05:07.053Z,17.96
2023-01-05T06:06:06.317Z,17.92
2023-01-05T06:07:06.357Z,17.95
2023-01-05T06:08:06.375Z,17.99
2023-01-05T06:09:06.407Z,17.95
2023-01-05T06:10:06.434Z,17.99
2023-01-05T06:11:06.464Z,17.99
2023-01-05T06:12:06.473Z,17.95
2023-01-05T06:13:06.505Z,17.98
2023-01-05T06:15:06.861Z,17.98
2023-01-05T06:16:06.620Z,17.95
2023-01-05T06:17:06.617Z,17.99
2023-01-05T06:18:06.747Z,17.94
2023-01-05T06:19:06.683Z,17.98
2023-01-05T06:20:06.712Z,17.99
2023-01-05T06:21:06.728Z,17.96
2023-01-05T06:22:06.757Z,17.96
2023-01-05T06:23:06.798Z,17.98
2023-01-05T06:24:06.811Z,17.99
2023-01-05T06:25:06.955Z,17.95
2023-01-05T06:26:06.863Z,17.84
2023-01-05T06:27:07.023Z,17.95
2023-01-05T06:28:07.219Z,17.94
2023-01-05T06:29:06.957Z,17.95
2023-01-05T06:30:06.988Z,17.96
2023-01-05T06:31:07.046Z,17.98
2023-01-05T06:32:07.033Z,17.99
2023-01-05T06:35:07.112Z,17.98
2023-01-05T06:36:07.647Z,17.98
2023-01-05T06:37:07.170Z,17.94
2023-01-05T06:38:07.317Z,17.96
2023-01-05T06:39:07.241Z,17.94
2023-01-05T06:40:07.253Z,17.87
2023-01-05T06:41:07.285Z,17.81
2023-01-05T06:42:07.312Z,17.94
2023-01-05T06:43:07.594Z,17.87
2023-01-05T06:44:07.360Z,17.87
2023-01-05T06:45:07.490Z,17.95
2023-01-05T06:46:07.474Z,17.86
2023-01-05T06:47:07.450Z,17.84
2023-01-05T06:49:07.817Z,17.83
2023-01-05T06:50:07.568Z,17.87
2023-01-05T06:51:07.569Z,17.87
2023-01-05T06:53:07.618Z,17.94
2023-01-05T06:54:07.661Z,17.87
2023-01-05T06:55:07.694Z,17.87
2023-01-05T06:56:07.701Z,17.86
2023-01-05T06:57:07.729Z,17.92
2023-01-05T06:58:07.752Z,17.89
2023-01-05T06:59:07.781Z,17.86
2023-01-05T07:00:07.807Z,17.80
2023-01-05T07:01:07.974Z,17.84
2023-01-05T07:02:08.211Z,17.81
2023-01-05T07:03:07.888Z,17.80
2023-01-05T07:04:08.016Z,17.86
2023-01-05T07:05:07.948Z,17.81
2023-01-05T07:06:14.417Z,17.80
2023-01-05T07:07:08.013Z,17.83
2023-01-05T07:08:08.334Z,17.89
2023-01-05T07:11:08.129Z,17.83
2023-01-05T07:12:08.213Z,17.86
2023-01-05T07:14:08.202Z,17.80
2023-01-05T07:16:08.374Z,17.86
2023-01-05T07:18:08.312Z,17.89
2023-01-05T07:19:08.347Z,17.83
2023-01-05T07:21:08.642Z,17.79
2023-01-05T07:22:08.420Z,17.80
2023-01-05T07:23:08.482Z,17.80
2023-01-05T07:24:08.476Z,17.79
2023-01-05T07:25:08.510Z,17.83
2023-01-05T07:27:09.987Z,17.87
2023-01-05T07:28:08.885Z,17.81
2023-01-05T07:29:08.622Z,17.80
2023-01-05T07:30:08.644Z,17.81
2023-01-05T07:31:08.834Z,17.77
2023-01-05T07:32:08.700Z,17.81
2023-01-05T07:33:08.725Z,17.80
2023-01-05T07:35:08.785Z,17.80
2023-01-05T07:36:08.866Z,17.84
2023-01-05T07:37:08.830Z,17.81
2023-01-05T07:38:08.899Z,17.83
2023-01-05T07:39:08.886Z,17.84
2023-01-05T07:40:08.913Z,17.80
2023-01-05T07:41:08.961Z,17.83
2023-01-05T07:42:09.279Z,17.89
2023-01-05T07:43:09.032Z,17.83
2023-01-05T07:44:09.027Z,17.80
2023-01-05T07:45:09.056Z,17.86
2023-01-05T07:46:09.245Z,17.84
2023-01-05T07:47:09.112Z,17.83
2023-01-05T07:48:09.503Z,17.81
2023-01-05T07:49:09.828Z,17.84
2023-01-05T07:50:09.195Z,17.83
2023-01-05T07:51:09.237Z,17.81
2023-01-05T07:52:09.299Z,17.89
2023-01-05T07:53:09.271Z,17.80
2023-01-05T07:54:09.331Z,17.83
2023-01-05T07:55:09.474Z,17.84
2023-01-05T07:56:09.603Z,17.84
2023-01-05T07:57:09.511Z,17.79
2023-01-05T07:58:09.414Z,17.81
2023-01-05T08:02:10.029Z,17.84
2023-01-05T08:04:09.633Z,17.81
2023-01-05T08:05:09.611Z,17.84
2023-01-05T08:06:09.749Z,17.84
2023-01-05T08:07:09.695Z,17.86
2023-01-05T08:08:09.691Z,17.83
2023-01-05T08:09:10.020Z,17.79
2023-01-05T08:10:09.789Z,17.79
2023-01-05T08:11:09.782Z,17.81
2023-01-05T08:12:09.811Z,17.81
2023-01-05T08:13:09.832Z,17.84
2023-01-05T08:14:09.905Z,17.83
2023-01-05T08:15:09.900Z,17.84
2023-01-05T08:16:10.247Z,17.81
2023-01-05T08:17:09.947Z,17.79
2023-01-05T08:18:10.054Z,17.79
2023-01-05T08:19:11.640Z,17.81
2023-01-05T08:21:10.074Z,17.83
2023-01-05T08:22:10.097Z,17.80
2023-01-05T08:23:10.425Z,17.84
2023-01-05T08:24:10.153Z,17.79
2023-01-05T08:25:10.162Z,17.91
2023-01-05T08:26:10.212Z,17.86
2023-01-05T08:27:10.503Z,17.91
2023-01-05T08:28:10.249Z,17.89
2023-01-05T08:29:10.586Z,17.81
2023-01-05T08:30:10.306Z,17.84
2023-01-05T08:32:10.403Z,17.81
2023-01-05T08:33:10.432Z,17.84
2023-01-05T08:34:10.428Z,17.86
2023-01-05T08:35:10.742Z,17.83
2023-01-05T08:36:10.477Z,17.89
2023-01-05T08:37:10.498Z,17.81
2023-01-05T08:38:10.524Z,17.87
2023-01-05T08:39:10.578Z,17.91
2023-01-05T08:40:10.691Z,17.84
2023-01-05T08:41:10.915Z,17.86
2023-01-05T08:42:10.643Z,17.83
2023-01-05T08:43:10.671Z,17.83
2023-01-05T08:44:10.726Z,17.81
2023-01-05T08:45:10.771Z,17.91
2023-01-05T08:46:10.764Z,17.84
2023-01-05T08:47:10.773Z,17.83
2023-01-05T08:48:11.108Z,17.86
2023-01-05T08:50:10.876Z,17.86
2023-01-05T08:51:10.895Z,17.91
2023-01-05T08:52:10.913Z,17.87
2023-01-05T08:53:10.946Z,17.81
2023-01-05T08:54:10.968Z,17.92
2023-01-05T08:55:11.313Z,17.81
2023-01-05T08:56:11.019Z,17.84
2023-01-05T08:57:11.070Z,17.86
2023-01-05T08:58:11.149Z,17.89
2023-01-05T08:59:11.099Z,17.86
2023-01-05T09:00:11.131Z,17.80
2023-01-05T09:01:11.303Z,17.84
2023-01-05T09:02:11.603Z,17.89
2023-01-05T09:03:11.271Z,17.94
2023-01-05T09:04:11.259Z,17.83
2023-01-05T09:05:11.355Z,17.86
2023-01-05T09:06:11.406Z,17.96
2023-01-05T09:07:11.324Z,17.91
2023-01-05T09:08:11.355Z,17.94
2023-01-05T09:09:11.641Z,17.94
2023-01-05T09:10:11.496Z,18.01
2023-01-05T09:11:11.438Z,17.99
2023-01-05T09:12:11.465Z,17.92
2023-01-05T09:13:11.509Z,17.94
2023-01-05T09:14:11.522Z,18.02
2023-01-05T09:15:11.586Z,17.92
2023-01-05T09:16:12.047Z,17.96
2023-01-05T09:17:11.681Z,17.96
2023-01-05T09:18:11.633Z,17.98
2023-01-05T09:19:11.660Z,17.96
2023-01-05T09:20:11.693Z,17.96
2023-01-05T09:21:11.717Z,17.95
2023-01-05T09:22:11.764Z,17.98
2023-01-05T09:23:11.776Z,17.95
2023-01-05T09:24:11.797Z,17.98
2023-01-05T09:25:11.823Z,17.99
2023-01-05T09:26:11.856Z,17.96
2023-01-05T09:27:11.878Z,17.91
2023-01-05T09:28:11.913Z,17.89
2023-01-05T09:29:12.365Z,17.96
2023-01-05T09:30:11.967Z,17.95
2023-01-05T09:31:12.104Z,17.94
2023-01-05T09:32:12.117Z,17.99
2023-01-05T09:33:12.055Z,17.96
2023-01-05T09:34:12.072Z,17.95
2023-01-05T09:35:12.114Z,17.91
2023-01-05T09:36:12.437Z,17.98
2023-01-05T09:37:12.263Z,18.04
2023-01-05T09:38:12.311Z,18.01
2023-01-05T09:39:12.217Z,18.01
2023-01-05T09:40:12.243Z,18.02
2023-01-05T09:42:12.595Z,17.98
2023-01-05T09:43:12.342Z,17.99
2023-01-05T09:44:12.358Z,18.02
2023-01-05T09:45:12.480Z,17.95
2023-01-05T09:46:12.471Z,17.96
2023-01-05T09:47:12.432Z,18.09
2023-01-05T09:48:12.711Z,17.98
2023-01-05T09:49:12.505Z,18.05
2023-01-05T09:50:12.514Z,17.96
2023-01-05T09:51:12.550Z,18.05
2023-01-05T09:52:12.593Z,18.05
2023-01-05T09:53:12.611Z,17.98
2023-01-05T09:54:12.998Z,18.10
2023-01-05T09:55:12.665Z,18.07
2023-01-05T09:56:13.761Z,18.04
2023-01-05T09:57:12.716Z,18.04
2023-01-05T09:58:12.832Z,18.07
2023-01-05T10:02:12.900Z,18.04
2023-01-05T10:04:13.044Z,18.07
2023-01-05T10:05:13.095Z,18.09
2023-01-05T10:06:12.967Z,18.10
2023-01-05T10:07:12.997Z,18.09
2023-01-05T10:08:13.060Z,18.04
2023-01-05T10:09:13.046Z,18.11
2023-01-05T10:10:13.199Z,18.10
2023-01-05T10:11:13.679Z,18.09
2023-01-05T10:12:14.118Z,18.13
2023-01-05T10:13:13.419Z,18.13
2023-01-05T10:14:13.214Z,18.11
2023-01-05T10:15:13.219Z,18.13
2023-01-05T10:16:13.292Z,18.17
2023-01-05T10:17:40.041Z,18.11
2023-01-05T10:18:13.357Z,18.14
2023-01-05T10:19:13.330Z,18.16
2023-01-05T10:20:13.744Z,18.14
2023-01-05T10:21:13.387Z,18.17
2023-01-05T10:22:13.409Z,18.11
2023-01-05T10:23:13.447Z,18.19
2023-01-05T10:24:13.488Z,18.16
2023-01-05T10:25:13.499Z,18.19
2023-01-05T10:26:13.649Z,18.11
2023-01-05T10:27:24.807Z,18.16
2023-01-05T10:28:13.579Z,18.17
2023-01-05T10:29:13.603Z,18.19
2023-01-05T10:30:13.642Z,18.16
2023-01-05T10:31:13.707Z,18.19
2023-01-05T10:32:13.697Z,18.19
2023-01-05T10:33:38.917Z,18.17
2023-01-05T10:34:16.416Z,18.14
2023-01-05T10:35:34.022Z,18.21
2023-01-05T10:36:16.489Z,18.16
2023-01-05T10:37:13.837Z,18.20
2023-01-05T10:38:13.895Z,18.25
2023-01-05T10:39:13.890Z,18.19
2023-01-05T10:40:13.919Z,18.23
2023-01-05T10:41:13.949Z,18.25
2023-01-05T10:42:14.085Z,18.28
2023-01-05T10:43:14.005Z,18.21
2023-01-05T10:44:14.027Z,18.20
2023-01-05T10:45:14.058Z,18.25
2023-01-05T10:46:48.701Z,18.25
2023-01-05T10:49:14.183Z,18.26
2023-01-05T10:50:14.214Z,18.29
2023-01-05T10:51:14.245Z,18.26
2023-01-05T10:52:14.558Z,18.28
2023-01-05T10:53:14.384Z,18.26
2023-01-05T10:54:14.343Z,18.29
2023-01-05T10:55:14.344Z,18.32
2023-01-05T10:56:14.373Z,18.28
2023-01-05T10:57:14.396Z,18.29
2023-01-05T10:58:14.538Z,18.31
2023-01-05T10:59:14.931Z,18.31
2023-01-05T11:00:14.484Z,18.31
2023-01-05T11:01:14.689Z,18.29
2023-01-05T11:02:14.650Z,18.28
2023-01-05T11:03:14.560Z,18.28
2023-01-05T11:04:31.761Z,18.32
2023-01-05T11:05:14.709Z,18.34
2023-01-05T11:06:15.015Z,18.26
2023-01-05T11:07:14.673Z,18.28
2023-01-05T11:08:14.706Z,18.35
2023-01-05T11:09:18.861Z,18.32
2023-01-05T11:10:14.776Z,18.29
2023-01-05T11:11:14.799Z,18.32
2023-01-05T11:12:14.817Z,18.38
2023-01-05T11:13:15.122Z,18.35
2023-01-05T11:14:14.994Z,18.31
2023-01-05T11:15:14.912Z,18.32
2023-01-05T11:16:15.010Z,18.34
2023-01-05T11:17:14.951Z,18.29
2023-01-05T11:18:14.987Z,18.29
2023-01-05T11:19:15.013Z,18.47
2023-01-05T11:20:15.384Z,18.38
2023-01-05T11:21:15.174Z,18.47
2023-01-05T11:22:15.106Z,18.46
2023-01-05T11:23:15.134Z,18.39
2023-01-05T11:24:15.158Z,18.44
2023-01-05T11:25:15.179Z,18.38
2023-01-05T11:26:15.218Z,18.38
2023-01-05T11:27:15.236Z,18.44
2023-01-05T11:28:15.576Z,18.42
2023-01-05T11:29:16.045Z,18.42
2023-01-05T11:30:15.534Z,18.38
2023-01-05T11:31:15.449Z,18.44
2023-01-05T11:32:15.387Z,18.42
2023-01-05T11:33:21.405Z,18.46
2023-01-05T11:34:15.434Z,18.39
2023-01-05T11:35:15.467Z,18.39
2023-01-05T11:36:15.512Z,18.44
2023-01-05T11:37:15.532Z,18.44
2023-01-05T11:38:15.557Z,18.35
2023-01-05T11:40:15.612Z,18.42
2023-01-05T11:42:20.263Z,18.41
2023-01-05T11:43:15.697Z,18.41
2023-01-05T11:44:15.718Z,18.38
2023-01-05T11:46:15.981Z,18.47
2023-01-05T11:47:15.818Z,18.39
2023-01-05T11:48:15.841Z,18.38
2023-01-05T11:49:15.858Z,18.47
2023-01-05T11:50:15.959Z,18.41
2023-01-05T11:51:15.917Z,18.39
2023-01-05T11:53:16.274Z,18.46
2023-01-05T11:54:15.998Z,18.46
2023-01-05T11:55:16.029Z,18.44
2023-01-05T11:56:16.055Z,18.49
2023-01-05T11:57:16.097Z,18.50
2023-01-05T11:58:16.137Z,18.46
2023-01-05T11:59:16.397Z,18.39
2023-01-05T12:00:16.230Z,18.36
2023-01-05T12:01:16.301Z,18.42
2023-01-05T12:03:16.424Z,18.47
2023-01-05T12:04:16.376Z,18.50
2023-01-05T12:05:16.574Z,18.50
2023-01-05T12:06:16.333Z,18.51
2023-01-05T12:07:16.381Z,18.41
2023-01-05T12:08:16.396Z,18.49
2023-01-05T12:09:16.463Z,18.49
2023-01-05T12:10:16.451Z,18.49
2023-01-05T12:12:16.532Z,18.39
2023-01-05T12:13:16.557Z,18.51
2023-01-05T12:14:16.568Z,18.46
2023-01-05T12:15:16.595Z,18.49
2023-01-05T12:16:16.713Z,18.47
2023-01-05T12:17:16.680Z,18.60
2023-01-05T12:18:16.996Z,18.44
2023-01-05T12:19:16.847Z,18.54
2023-01-05T12:20:16.739Z,18.50
2023-01-05T12:21:16.759Z,18.54
2023-01-05T12:22:16.806Z,18.57
2023-01-05T12:23:16.830Z,18.51
2023-01-05T12:24:16.875Z,18.50
2023-01-05T12:25:16.875Z,18.50
2023-01-05T12:26:16.923Z,18.60
2023-01-05T12:27:16.962Z,18.50
2023-01-05T12:28:29.577Z,18.57
2023-01-05T12:34:17.158Z,18.60
2023-01-05T12:35:17.279Z,18.49
2023-01-05T12:36:17.197Z,18.51
2023-01-05T12:37:17.229Z,18.62
2023-01-05T12:38:17.284Z,18.60
2023-01-05T12:40:17.309Z,18.62
2023-01-05T12:41:17.334Z,18.60
2023-01-05T12:42:17.367Z,18.57
2023-01-05T12:43:17.640Z,18.60
2023-01-05T12:44:17.467Z,18.60
2023-01-05T12:45:17.452Z,18.66
2023-01-05T12:46:17.507Z,18.57
2023-01-05T12:47:17.511Z,18.62
2023-01-05T12:48:17.589Z,18.57
2023-01-05T12:49:17.818Z,18.65
2023-01-05T12:50:18.196Z,18.66
2023-01-05T12:51:17.735Z,18.62
2023-01-05T12:53:17.683Z,18.56
2023-01-05T12:54:17.700Z,18.57
2023-01-05T12:55:18.037Z,18.56
2023-01-05T12:56:17.782Z,18.54
2023-01-05T12:58:17.810Z,18.62
2023-01-05T12:59:17.848Z,18.59
2023-01-05T13:00:17.894Z,18.69
2023-01-05T13:01:18.053Z,18.56
2023-01-05T13:02:18.029Z,18.59
2023-01-05T13:03:17.969Z,18.65
2023-01-05T13:04:18.109Z,18.66
2023-01-05T13:05:18.021Z,18.64
2023-01-05T13:06:18.050Z,18.66
2023-01-05T13:07:18.198Z,18.64
2023-01-05T13:08:18.406Z,18.68
2023-01-05T13:09:18.141Z,18.64
2023-01-05T13:10:18.160Z,18.65
2023-01-05T13:11:18.203Z,18.60
2023-01-05T13:12:18.208Z,18.71
2023-01-05T13:13:18.251Z,18.66
2023-01-05T13:14:18.288Z,18.71
2023-01-05T13:15:18.546Z,18.68
2023-01-05T13:16:18.368Z,18.65
2023-01-05T13:17:18.360Z,18.69
2023-01-05T13:18:18.511Z,18.72
2023-01-05T13:19:18.420Z,18.66
2023-01-05T13:20:18.439Z,18.65
2023-01-05T13:21:18.484Z,18.66
2023-01-05T13:22:18.842Z,18.62
2023-01-05T13:23:18.642Z,18.68
2023-01-05T13:24:18.556Z,18.64
2023-01-05T13:25:18.592Z,18.74
2023-01-05T13:26:18.711Z,18.75
2023-01-05T13:27:18.639Z,18.68
2023-01-05T13:28:18.672Z,18.71
2023-01-05T13:29:18.696Z,18.75
2023-01-05T13:30:18.720Z,18.68
2023-01-05T13:31:18.904Z,18.76
2023-01-05T13:32:18.815Z,18.72
2023-01-05T13:33:18.820Z,18.72
2023-01-05T13:34:18.842Z,18.68
2023-01-05T13:35:19.159Z,18.69
2023-01-05T13:36:18.906Z,18.72
2023-01-05T13:37:19.029Z,18.75
2023-01-05T13:38:18.972Z,18.72
2023-01-05T13:39:19.184Z,18.72
2023-01-05T13:40:19.010Z,18.65
2023-01-05T13:41:19.288Z,18.72
2023-01-05T13:42:19.232Z,18.74
2023-01-05T13:43:19.129Z,18.69
2023-01-05T13:44:19.150Z,18.74
2023-01-05T13:45:19.155Z,18.65
2023-01-05T13:46:19.252Z,18.66
2023-01-05T13:47:27.076Z,18.71
2023-01-05T13:48:25.283Z,18.66
2023-01-05T13:49:19.270Z,18.69
2023-01-05T13:50:19.330Z,18.62
2023-01-05T13:51:19.329Z,18.64
2023-01-05T13:52:19.367Z,18.64
2023-01-05T13:53:19.384Z,18.62
2023-01-05T13:54:19.409Z,18.69
2023-01-05T13:55:25.706Z,18.64
2023-01-05T13:56:19.597Z,18.68
2023-01-05T13:57:19.504Z,18.69
2023-01-05T13:58:19.528Z,18.66
2023-01-05T13:59:29.033Z,18.66
2023-01-05T14:00:19.592Z,18.69
2023-01-05T14:02:19.705Z,18.68